createdAt,value
2019-02-18T00:00:32.880Z,12.73
2019-02-18T00:05:34.551Z,12.27
2019-02-18T00:10:36.254Z,12.60
2019-02-18T00:15:38.064Z,11.93
2019-02-18T00:20:39.731Z,13.10
2019-02-18T00:25:41.307Z,11.00
2019-02-18T00:30:42.891Z,10.70
2019-02-18T00:35:44.583Z,11.83
2019-02-18T00:40:46.150Z,11.30
2019-02-18T00:45:47.724Z,10.33
2019-02-18T00:50:49.300Z,9.73
2019-02-18T00:55:50.865Z,12.90
2019-02-18T01:00:52.429Z,14.73
2019-02-18T01:05:53.985Z,16.33
2019-02-18T01:10:55.602Z,10.23
2019-02-18T01:15:57.161Z,13.40
2019-02-18T01:20:58.725Z,12.77
2019-02-18T01:26:00.534Z,10.93
2019-02-18T01:31:02.122Z,12.77
2019-02-18T01:36:03.732Z,12.03
2019-02-18T01:41:05.393Z,9.83
2019-02-18T01:46:07.084Z,10.80
2019-02-18T01:51:08.752Z,13.10
2019-02-18T01:56:10.324Z,12.47
2019-02-18T02:01:12.021Z,10.07
2019-02-18T02:06:13.935Z,9.73
2019-02-18T02:11:15.614Z,10.80
2019-02-18T02:16:17.313Z,10.27
2019-02-18T02:21:18.886Z,11.37
2019-02-18T02:26:20.450Z,9.30
2019-02-18T02:31:22.037Z,11.13
2019-02-18T02:36:23.617Z,11.03
2019-02-18T02:41:25.218Z,9.97
2019-02-18T02:46:26.782Z,10.57
2019-02-18T02:51:28.349Z,9.50
2019-02-18T02:56:29.918Z,10.10
2019-02-18T03:01:31.491Z,9.67
2019-02-18T03:06:33.057Z,11.73
2019-02-18T03:11:34.642Z,9.20
2019-02-18T03:16:36.242Z,10.50
2019-02-18T03:21:37.937Z,9.37
2019-02-18T03:26:39.614Z,9.90
2019-02-18T03:31:41.278Z,9.33
2019-02-18T03:36:42.894Z,8.67
2019-02-18T03:41:44.474Z,9.63
2019-02-18T03:46:46.026Z,9.50
2019-02-18T03:51:47.632Z,10.37
2019-02-18T03:56:49.230Z,8.80
2019-02-18T04:01:50.902Z,7.53
2019-02-18T04:06:52.469Z,12.57
2019-02-18T04:11:54.137Z,7.77
2019-02-18T04:16:55.700Z,11.07
2019-02-18T04:21:57.270Z,11.17
2019-02-18T04:26:58.826Z,8.27
2019-02-18T04:32:00.370Z,8.07
2019-02-18T04:37:01.941Z,8.60
2019-02-18T04:42:03.633Z,8.87
2019-02-18T04:47:05.215Z,10.23
2019-02-18T04:52:06.893Z,9.20
2019-02-18T04:57:08.464Z,8.47
2019-02-18T05:02:10.080Z,9.10
2019-02-18T05:07:11.646Z,9.80
2019-02-18T05:12:13.208Z,7.57
2019-02-18T05:17:14.773Z,10.10
2019-02-18T05:22:16.347Z,9.30
2019-02-18T05:27:17.934Z,8.27
2019-02-18T05:32:19.486Z,9.83
2019-02-18T05:37:21.044Z,10.20
2019-02-18T05:42:22.662Z,9.30
2019-02-18T05:47:24.220Z,8.93
2019-02-18T05:52:25.777Z,8.73
2019-02-18T05:57:27.351Z,8.83
2019-02-18T06:02:28.978Z,9.00
2019-02-18T06:07:30.557Z,10.63
2019-02-18T06:12:32.128Z,9.70
2019-02-18T06:17:33.697Z,8.20
2019-02-18T06:22:35.247Z,10.40
2019-02-18T06:27:36.905Z,8.07
2019-02-18T06:32:38.476Z,7.70
2019-02-18T06:37:40.042Z,9.83
2019-02-18T06:42:41.706Z,10.13
2019-02-18T06:47:43.255Z,7.17
2019-02-18T06:52:44.809Z,12.93
2019-02-18T06:58:04.689Z,9.80
2019-02-18T07:03:20.354Z,9.27
2019-02-18T07:08:31.367Z,10.40
2019-02-18T07:13:32.939Z,12.67
2019-02-18T07:18:34.510Z,7.43
2019-02-18T07:23:36.179Z,9.27
2019-02-18T07:28:37.742Z,9.30
2019-02-18T07:33:39.285Z,9.03
2019-02-18T07:38:40.854Z,9.20
2019-02-18T07:43:42.521Z,8.53
2019-02-18T07:48:44.087Z,8.77
2019-02-18T07:53:45.640Z,15.20
2019-02-18T07:58:47.214Z,10.77
2019-02-18T08:03:48.779Z,8.50
2019-02-18T08:08:50.390Z,9.27
2019-02-18T08:13:51.967Z,10.20
2019-02-18T08:18:53.530Z,9.70
2019-02-18T08:24:00.184Z,9.43
2019-02-18T08:28:58.605Z,9.40
2019-02-18T08:34:00.171Z,9.47
2019-02-18T08:39:01.746Z,14.73
2019-02-18T08:44:03.412Z,8.97
2019-02-18T08:49:04.980Z,8.57
2019-02-18T08:54:06.559Z,8.67
2019-02-18T08:59:08.237Z,8.80
2019-02-18T09:04:09.798Z,8.73
2019-02-18T09:09:11.463Z,7.87
2019-02-18T09:14:13.023Z,8.60
2019-02-18T09:19:14.587Z,8.10
2019-02-18T09:24:20.235Z,12.40
2019-02-18T09:29:21.760Z,7.20
2019-02-18T09:34:23.344Z,8.27
2019-02-18T09:39:31.166Z,9.97
2019-02-18T09:44:28.404Z,8.23
2019-02-18T09:49:29.984Z,7.10
2019-02-18T09:54:31.550Z,10.27
2019-02-18T09:59:33.110Z,10.17
2019-02-18T10:04:34.666Z,9.33
2019-02-18T10:09:36.224Z,8.00
2019-02-18T10:14:37.929Z,10.23
2019-02-18T10:19:39.654Z,11.03
2019-02-18T10:24:50.738Z,9.20
2019-02-18T10:29:44.816Z,10.23
2019-02-18T10:34:46.585Z,11.57
2019-02-18T10:39:48.182Z,12.67
2019-02-18T10:44:49.751Z,11.50
2019-02-18T10:49:51.509Z,10.03
2019-02-18T10:54:53.100Z,9.73
2019-02-18T10:59:54.681Z,11.43
2019-02-18T11:04:56.257Z,9.87
2019-02-18T11:09:57.844Z,10.93
2019-02-18T11:14:59.499Z,11.53
2019-02-18T11:20:01.190Z,12.77
2019-02-18T11:25:03.302Z,10.50
2019-02-18T11:30:06.917Z,10.97
2019-02-18T11:35:09.238Z,10.33
2019-02-18T11:40:12.293Z,10.20
2019-02-18T11:45:14.170Z,10.35
2019-02-18T11:50:15.920Z,10.35
2019-02-18T11:55:17.494Z,11.50
2019-02-18T12:00:19.533Z,12.30
2019-02-18T12:05:21.326Z,12.55
2019-02-18T12:10:23.004Z,11.73
2019-02-18T12:15:24.682Z,9.98
2019-02-18T12:20:26.277Z,10.13
2019-02-18T12:25:27.898Z,11.15
2019-02-18T12:30:29.581Z,10.55
2019-02-18T12:35:31.266Z,10.63
2019-02-18T12:40:34.854Z,12.00
2019-02-18T12:45:37.280Z,11.93
2019-02-18T12:50:38.978Z,10.85
2019-02-18T12:55:40.683Z,11.28
2019-02-18T13:00:42.357Z,10.32
2019-02-18T13:05:43.967Z,10.63
2019-02-18T13:10:45.780Z,11.12
2019-02-18T13:15:47.454Z,11.20
2019-02-18T13:20:49.144Z,11.45
2019-02-18T13:25:50.898Z,9.65
2019-02-18T13:30:52.463Z,9.28
2019-02-18T13:35:54.051Z,10.68
2019-02-18T13:40:55.727Z,10.40
2019-02-18T13:45:57.303Z,11.05
2019-02-18T13:50:58.899Z,11.57
2019-02-18T13:56:00.583Z,11.83
2019-02-18T14:01:02.270Z,10.82
2019-02-18T14:06:04.337Z,10.60
2019-02-18T14:11:06.019Z,9.98
2019-02-18T14:16:07.658Z,10.15
2019-02-18T14:21:09.349Z,8.53
2019-02-18T14:26:11.022Z,9.23
2019-02-18T14:31:13.222Z,14.83
2019-02-18T14:36:14.833Z,9.50
2019-02-18T14:41:16.521Z,12.82
2019-02-18T14:46:18.209Z,10.98
2019-02-18T14:51:19.764Z,18.37
2019-02-18T14:56:21.525Z,16.10
2019-02-18T15:01:23.208Z,10.20
2019-02-18T15:06:24.894Z,12.10
2019-02-18T15:11:26.672Z,11.43
2019-02-18T15:16:28.284Z,12.33
2019-02-18T15:21:29.851Z,9.13
2019-02-18T15:26:31.535Z,10.90
2019-02-18T15:31:33.115Z,10.93
2019-02-18T15:36:34.829Z,10.43
2019-02-18T15:41:36.418Z,10.90
2019-02-18T15:46:37.992Z,11.10
2019-02-18T15:51:39.589Z,13.98
2019-02-18T15:56:41.275Z,13.75
2019-02-18T16:01:43.049Z,14.20
2019-02-18T16:06:44.626Z,12.90
2019-02-18T16:11:46.191Z,14.63
2019-02-18T16:16:48.085Z,11.43
2019-02-18T16:21:49.666Z,13.63
2019-02-18T16:26:51.250Z,14.05
2019-02-18T16:31:52.844Z,17.55
2019-02-18T16:36:54.437Z,17.47
2019-02-18T16:41:56.017Z,12.47
2019-02-18T16:46:57.713Z,16.57
2019-02-18T16:51:59.321Z,14.60
2019-02-18T16:57:01.092Z,13.37
2019-02-18T17:02:02.945Z,14.67
2019-02-18T17:07:04.521Z,14.07
2019-02-18T17:12:06.220Z,13.53
2019-02-18T17:17:07.870Z,15.70
2019-02-18T17:22:09.438Z,30.53
2019-02-18T17:27:11.022Z,31.63
2019-02-18T17:32:12.614Z,34.00
2019-02-18T17:37:14.568Z,28.00
2019-02-18T17:42:16.243Z,26.47
2019-02-18T17:47:17.981Z,22.97
2019-02-18T17:52:19.650Z,19.67
2019-02-18T17:57:21.230Z,24.13
2019-02-18T18:02:22.910Z,22.63
2019-02-18T18:07:24.462Z,19.17
2019-02-18T18:12:26.023Z,18.23
2019-02-18T18:17:27.881Z,22.63
2019-02-18T18:22:29.599Z,20.77
2019-02-18T18:27:31.192Z,16.10
2019-02-18T18:32:32.762Z,22.07
2019-02-18T18:37:34.344Z,20.40
2019-02-18T18:42:36.030Z,14.03
2019-02-18T18:47:37.702Z,13.37
2019-02-18T18:52:39.262Z,12.07
2019-02-18T18:57:40.832Z,14.03
2019-02-18T19:02:42.432Z,11.63
2019-02-18T19:07:44.119Z,12.30
2019-02-18T19:12:45.720Z,14.03
2019-02-18T19:17:47.397Z,12.67
2019-02-18T19:22:49.213Z,13.57
2019-02-18T19:27:50.783Z,12.20
2019-02-18T19:32:52.517Z,14.93
2019-02-18T19:37:54.218Z,13.23
2019-02-18T19:42:55.872Z,15.60
2019-02-18T19:47:57.873Z,12.90
2019-02-18T19:52:59.432Z,11.70
2019-02-18T19:58:01.052Z,14.37
2019-02-18T20:03:02.619Z,11.73
2019-02-18T20:08:04.363Z,11.70
2019-02-18T20:13:06.446Z,15.67
2019-02-18T20:18:08.045Z,10.13
2019-02-18T20:23:09.637Z,13.23
2019-02-18T20:28:11.213Z,14.93
2019-02-18T20:33:12.797Z,11.27
2019-02-18T20:38:14.806Z,13.83
2019-02-18T20:43:16.391Z,14.30
2019-02-18T20:48:17.940Z,13.33
2019-02-18T20:53:19.519Z,12.53
2019-02-18T20:58:21.082Z,12.43
2019-02-18T21:03:22.660Z,13.23
2019-02-18T21:08:24.230Z,12.40
2019-02-18T21:13:25.984Z,13.10
2019-02-18T21:18:28.039Z,15.90
2019-02-18T21:23:29.619Z,14.47
2019-02-18T21:28:31.364Z,11.67
2019-02-18T21:33:32.958Z,12.90
2019-02-18T21:38:34.577Z,13.43
2019-02-18T21:43:36.268Z,12.23
2019-02-18T21:48:37.846Z,14.50
2019-02-18T21:53:39.456Z,12.83
2019-02-18T21:58:41.224Z,16.13
2019-02-18T22:03:42.803Z,13.77
2019-02-18T22:08:44.372Z,12.87
2019-02-18T22:13:45.958Z,15.33
2019-02-18T22:18:47.532Z,18.00
2019-02-18T22:23:49.092Z,17.00
2019-02-18T22:28:50.680Z,14.73
2019-02-18T22:33:52.288Z,14.83
2019-02-18T22:38:53.873Z,15.83
2019-02-18T22:43:55.454Z,14.10
2019-02-18T22:48:57.017Z,14.83
2019-02-18T22:53:59.026Z,17.50
2019-02-18T22:59:00.600Z,14.77
2019-02-18T23:04:02.476Z,16.23
2019-02-18T23:09:06.486Z,15.37
2019-02-18T23:14:08.165Z,13.53
2019-02-18T23:19:09.758Z,15.87
2019-02-18T23:24:11.336Z,18.10
2019-02-18T23:29:12.953Z,19.83
2019-02-18T23:34:14.614Z,17.80
2019-02-18T23:39:16.262Z,21.47
2019-02-18T23:44:17.869Z,19.07
2019-02-18T23:49:19.476Z,15.77
2019-02-18T23:54:21.040Z,16.47
2019-02-18T23:59:22.606Z,15.23
